Time;durP1;ratioP1;P1;durP2;ratioP2;P2;SDS_P1;SDS_P2;PMS_P1;PMS_P2;Temp;Humidity;BMP_temperature;BMP_pressure;BME280_temperature;BME280_humidity;BME280_pressure;Samples;Min_cycle;Max_cycle;Signal;HPM_P1;HPM_P2
2023/09/24 00:02:12;;;;;;;0.00;0.00;;;13.70;85.20;;;;;;4971748;28;20059;-71
2023/09/24 00:04:39;;;;;;;0.00;0.00;;;13.70;85.20;;;;;;4979269;28;20518;-71
2023/09/24 00:07:05;;;;;;;0.00;0.00;;;13.60;85.30;;;;;;4991117;28;20078;-71
2023/09/24 00:09:31;;;;;;;0.00;0.00;;;13.70;85.40;;;;;;4990467;28;20053;-71
2023/09/24 00:11:57;;;;;;;0.00;0.00;;;13.60;85.40;;;;;;4990944;28;20698;-71
2023/09/24 00:14:23;;;;;;;0.00;0.00;;;13.60;85.40;;;;;;4981915;28;20047;-72
2023/09/24 00:16:49;;;;;;;0.00;0.00;;;13.60;85.40;;;;;;4971310;28;20125;-71
2023/09/24 00:19:14;;;;;;;0.00;0.00;;;13.60;85.30;;;;;;4971454;28;20587;-71
2023/09/24 00:21:40;;;;;;;0.00;0.00;;;13.60;85.20;;;;;;4969782;28;20412;-71
2023/09/24 00:24:07;;;;;;;0.05;0.05;;;13.60;85.20;;;;;;4966921;28;20407;-71
2023/09/24 00:26:32;;;;;;;0.00;0.00;;;13.60;85.20;;;;;;4990418;28;20411;-71
2023/09/24 00:28:58;;;;;;;0.00;0.00;;;13.60;85.20;;;;;;4978655;28;20042;-72
2023/09/24 00:31:25;;;;;;;0.00;0.00;;;13.50;85.20;;;;;;4971014;28;20125;-71
2023/09/24 00:33:53;;;;;;;0.00;0.00;;;13.50;85.30;;;;;;4972966;28;20211;-71
2023/09/24 00:36:19;;;;;;;0.00;0.00;;;13.50;85.30;;;;;;4972473;28;20415;-71
2023/09/24 00:38:45;;;;;;;0.00;0.00;;;13.40;85.30;;;;;;4971016;28;20039;-71
2023/09/24 00:41:11;;;;;;;0.00;0.00;;;13.40;85.50;;;;;;4970488;28;20145;-71
2023/09/24 00:43:36;;;;;;;0.00;0.00;;;13.40;85.40;;;;;;4970840;28;20062;-71
2023/09/24 00:46:09;;;;;;;0.00;0.00;;;13.40;85.50;;;;;;4990023;28;20054;-71
2023/09/24 00:48:36;;;;;;;0.00;0.00;;;13.40;85.40;;;;;;4990455;28;20050;-71
2023/09/24 00:51:15;;;;;;;0.00;0.00;;;13.40;85.30;;;;;;4987943;28;20042;-71
2023/09/24 00:53:41;;;;;;;0.00;0.00;;;13.40;85.40;;;;;;4968727;28;20051;-71
2023/09/24 00:56:06;;;;;;;0.10;0.10;;;13.40;85.40;;;;;;4989726;28;20046;-71
2023/09/24 00:58:34;;;;;;;0.00;0.00;;;13.40;85.40;;;;;;4990422;28;20046;-71
2023/09/24 01:01:00;;;;;;;0.00;0.00;;;13.30;85.40;;;;;;4990436;28;20054;-71
2023/09/24 01:03:26;;;;;;;0.00;0.00;;;13.30;85.40;;;;;;4989985;28;20042;-71
2023/09/24 01:05:52;;;;;;;0.00;0.00;;;13.30;85.50;;;;;;4982215;28;20043;-71
2023/09/24 01:08:23;;;;;;;0.00;0.00;;;13.30;85.50;;;;;;4970230;28;20078;-72
2023/09/24 01:10:49;;;;;;;0.00;0.00;;;13.30;85.40;;;;;;4970562;28;20133;-71
2023/09/24 01:13:22;;;;;;;0.00;0.00;;;13.30;85.40;;;;;;4970396;28;20104;-72
2023/09/24 01:15:49;;;;;;;0.00;0.00;;;13.20;85.30;;;;;;4985299;28;20046;-71
2023/09/24 01:18:15;;;;;;;0.00;0.00;;;13.10;85.20;;;;;;4978559;28;20078;-71
2023/09/24 01:20:42;;;;;;;0.00;0.00;;;13.10;85.30;;;;;;4979529;28;20058;-71
2023/09/24 01:23:13;;;;;;;0.00;0.00;;;13.10;85.40;;;;;;4969753;28;20054;-71
2023/09/24 01:25:40;;;;;;;0.00;0.00;;;13.10;85.40;;;;;;4970191;28;20046;-72
2023/09/24 01:28:07;;;;;;;0.00;0.00;;;13.10;85.50;;;;;;4970104;28;20084;-71
2023/09/24 01:30:33;;;;;;;0.00;0.00;;;13.10;85.60;;;;;;4970330;28;20034;-71
2023/09/24 01:32:59;;;;;;;0.00;0.00;;;13.10;85.70;;;;;;4978373;28;20035;-71
2023/09/24 01:35:27;;;;;;;0.00;0.00;;;13.10;85.90;;;;;;4970772;28;20518;-71
2023/09/24 01:37:56;;;;;;;0.00;0.00;;;13.10;86.00;;;;;;4974121;28;20786;-71
2023/09/24 01:40:24;;;;;;;0.00;0.00;;;13.10;86.00;;;;;;4972853;28;20055;-71
2023/09/24 01:42:51;;;;;;;0.05;0.05;;;13.10;86.00;;;;;;4974134;28;20066;-71
2023/09/24 01:45:17;;;;;;;0.00;0.00;;;13.10;86.00;;;;;;4975390;28;20055;-71
2023/09/24 01:47:49;;;;;;;0.00;0.00;;;13.10;86.30;;;;;;4973923;28;20062;-71
2023/09/24 01:50:18;;;;;;;0.00;0.00;;;13.10;86.40;;;;;;4973697;28;20035;-71
2023/09/24 01:52:45;;;;;;;0.00;0.00;;;13.20;86.50;;;;;;4969910;28;20051;-71
2023/09/24 01:55:19;;;;;;;0.00;0.00;;;13.10;86.80;;;;;;4973826;28;20042;-71
2023/09/24 01:57:45;;;;;;;0.00;0.00;;;13.20;87.10;;;;;;4975473;28;20055;-71
2023/09/24 02:00:13;;;;;;;0.00;0.00;;;13.30;87.20;;;;;;4993033;28;20054;-71
2023/09/24 02:02:39;;;;;;;0.00;0.00;;;13.30;87.20;;;;;;4968308;28;20043;-71
2023/09/24 02:05:10;;;;;;;0.00;0.00;;;13.30;87.30;;;;;;4956014;28;20446;-71
2023/09/24 02:07:37;;;;;;;0.00;0.00;;;13.20;87.10;;;;;;4971856;28;20045;-72
2023/09/24 02:10:05;;;;;;;0.00;0.00;;;13.30;87.10;;;;;;4972865;28;20129;-71
2023/09/24 02:12:37;;;;;;;0.00;0.00;;;13.40;87.20;;;;;;4973389;28;20051;-71
2023/09/24 02:15:11;;;;;;;0.00;0.00;;;13.40;87.30;;;;;;4973878;28;20511;-71
2023/09/24 02:17:41;;;;;;;0.00;0.00;;;13.40;87.30;;;;;;4973478;28;20171;-71
2023/09/24 02:20:18;;;;;;;0.00;0.00;;;13.50;87.70;;;;;;4973499;28;20186;-71
2023/09/24 02:22:45;;;;;;;0.00;0.00;;;13.50;87.70;;;;;;4973050;28;20069;-71
2023/09/24 02:25:13;;;;;;;0.57;0.52;;;13.50;87.90;;;;;;4956520;28;20050;-71
2023/09/24 02:27:39;;;;;;;0.00;0.00;;;13.60;87.90;;;;;;4960962;28;20488;-71
2023/09/24 02:30:06;;;;;;;0.17;0.17;;;13.60;87.80;;;;;;4973393;28;20047;-71
2023/09/24 02:32:32;;;;;;;0.00;0.00;;;13.60;87.60;;;;;;4973279;28;20392;-71
2023/09/24 02:34:57;;;;;;;0.00;0.00;;;13.60;87.70;;;;;;4973271;28;20039;-71
2023/09/24 02:37:27;;;;;;;0.00;0.00;;;13.60;87.60;;;;;;4973052;28;20054;-70
2023/09/24 02:39:54;;;;;;;0.00;0.00;;;13.60;87.80;;;;;;4973045;28;20050;-71
2023/09/24 02:42:20;;;;;;;0.00;0.00;;;13.60;87.80;;;;;;4973038;28;20062;-71
2023/09/24 02:44:47;;;;;;;0.00;0.00;;;13.60;87.70;;;;;;4972252;28;20074;-71
2023/09/24 02:47:13;;;;;;;0.00;0.00;;;13.60;87.70;;;;;;4972198;28;20093;-71
2023/09/24 02:49:39;;;;;;;0.00;0.00;;;13.60;87.70;;;;;;4964723;28;20118;-70
2023/09/24 02:52:05;;;;;;;0.00;0.00;;;13.60;87.80;;;;;;4965393;28;20181;-71
2023/09/24 02:54:30;;;;;;;0.00;0.00;;;13.50;87.70;;;;;;4976715;28;20054;-71
2023/09/24 02:56:56;;;;;;;0.10;0.10;;;13.50;87.80;;;;;;4971457;28;20043;-70
2023/09/24 02:59:22;;;;;;;0.00;0.00;;;13.50;87.90;;;;;;4972009;28;20054;-70
2023/09/24 03:01:47;;;;;;;0.00;0.00;;;13.40;87.80;;;;;;4972288;28;20038;-71
2023/09/24 03:04:14;;;;;;;0.90;0.90;;;13.40;87.60;;;;;;4972676;28;20082;-71
2023/09/24 03:06:41;;;;;;;0.00;0.00;;;13.40;87.70;;;;;;4971608;28;20054;-71
2023/09/24 03:09:10;;;;;;;0.00;0.00;;;13.30;87.70;;;;;;4971047;28;20055;-71
2023/09/24 03:11:36;;;;;;;0.00;0.00;;;13.30;87.60;;;;;;4970204;28;20051;-71
2023/09/24 03:14:02;;;;;;;0.00;0.00;;;13.40;87.70;;;;;;4967832;28;20047;-71
2023/09/24 03:16:29;;;;;;;0.00;0.00;;;13.40;87.60;;;;;;4970918;28;20035;-71
2023/09/24 03:18:55;;;;;;;0.00;0.00;;;13.30;87.60;;;;;;4971961;28;20043;-71
2023/09/24 03:21:21;;;;;;;0.00;0.00;;;13.20;87.60;;;;;;4971466;28;20050;-71
2023/09/24 03:23:46;;;;;;;0.00;0.00;;;13.20;87.60;;;;;;4972635;28;20049;-71
2023/09/24 03:26:15;;;;;;;0.00;0.00;;;13.20;87.50;;;;;;4971840;28;20045;-71
2023/09/24 03:28:43;;;;;;;0.00;0.00;;;13.10;87.50;;;;;;4971965;28;20062;-71
2023/09/24 03:31:15;;;;;;;0.00;0.00;;;13.10;87.50;;;;;;4971850;28;20073;-70
2023/09/24 03:33:41;;;;;;;0.00;0.00;;;13.10;87.50;;;;;;4971759;28;20530;-71
2023/09/24 03:36:10;;;;;;;0.00;0.00;;;13.10;87.60;;;;;;4971735;28;20043;-71
2023/09/24 03:38:36;;;;;;;0.00;0.00;;;13.00;87.50;;;;;;4971844;28;20043;-71
2023/09/24 03:41:03;;;;;;;0.00;0.00;;;13.10;87.60;;;;;;4986821;28;20423;-71
2023/09/24 03:43:29;;;;;;;0.00;0.00;;;13.10;87.60;;;;;;4971902;28;20099;-70
2023/09/24 03:45:55;;;;;;;0.00;0.00;;;13.00;87.50;;;;;;4971646;28;20471;-71
2023/09/24 03:48:22;;;;;;;0.03;0.03;;;13.00;87.40;;;;;;4979148;28;20137;-71
2023/09/24 03:50:48;;;;;;;0.10;0.10;;;13.00;87.30;;;;;;4986142;28;20042;-71
2023/09/24 03:53:18;;;;;;;0.00;0.00;;;13.00;87.30;;;;;;4971385;28;20038;-71
2023/09/24 03:55:45;;;;;;;0.00;0.00;;;13.00;87.50;;;;;;4967441;28;20055;-71
2023/09/24 03:58:11;;;;;;;0.00;0.00;;;12.90;87.40;;;;;;4971906;28;20043;-71
2023/09/24 04:00:37;;;;;;;0.10;0.10;;;13.00;87.50;;;;;;4969318;28;20125;-71
2023/09/24 04:03:03;;;;;;;0.00;0.00;;;13.00;87.70;;;;;;4971354;28;20559;-70
2023/09/24 04:05:30;;;;;;;0.00;0.00;;;13.00;87.80;;;;;;4970154;28;20057;-71
2023/09/24 04:07:56;;;;;;;0.00;0.00;;;13.10;87.70;;;;;;4971228;28;20047;-71
2023/09/24 04:10:25;;;;;;;0.10;0.10;;;13.00;87.70;;;;;;4971093;28;20053;-70
2023/09/24 04:12:51;;;;;;;0.00;0.00;;;13.10;87.60;;;;;;4956596;28;20055;-71
2023/09/24 04:15:19;;;;;;;0.00;0.00;;;13.10;87.70;;;;;;4952281;28;20039;-70
2023/09/24 04:17:46;;;;;;;0.00;0.00;;;13.10;87.50;;;;;;4958634;28;20547;-71
2023/09/24 04:20:15;;;;;;;0.75;0.65;;;13.10;87.50;;;;;;4963983;28;20432;-71
2023/09/24 04:22:44;;;;;;;0.00;0.00;;;13.10;87.60;;;;;;4963397;28;20055;-71
2023/09/24 04:25:14;;;;;;;0.00;0.00;;;13.10;87.70;;;;;;4951980;28;20047;-71
2023/09/24 04:27:43;;;;;;;0.00;0.00;;;13.10;87.70;;;;;;4967853;28;20777;-71
2023/09/24 04:30:16;;;;;;;0.00;0.00;;;13.10;87.70;;;;;;4961962;28;20059;-71
2023/09/24 04:32:43;;;;;;;0.00;0.00;;;13.10;87.80;;;;;;4970740;28;20105;-70
2023/09/24 04:35:10;;;;;;;0.00;0.00;;;13.10;87.70;;;;;;4970889;28;20053;-70
2023/09/24 04:37:36;;;;;;;0.00;0.00;;;13.10;87.90;;;;;;4966348;28;20842;-70
2023/09/24 04:40:05;;;;;;;0.08;0.08;;;13.10;87.60;;;;;;4969479;28;20057;-70
2023/09/24 04:42:31;;;;;;;0.00;0.00;;;13.10;87.60;;;;;;4969870;28;20060;-70
2023/09/24 04:44:56;;;;;;;0.00;0.00;;;13.10;87.50;;;;;;4970916;28;20054;-70
2023/09/24 04:47:22;;;;;;;0.00;0.00;;;13.00;87.50;;;;;;4970347;28;20535;-71
2023/09/24 04:49:47;;;;;;;0.00;0.00;;;13.00;87.50;;;;;;4970367;28;20130;-71
2023/09/24 04:52:13;;;;;;;0.00;0.00;;;13.00;87.40;;;;;;4970811;28;20473;-71
2023/09/24 04:54:38;;;;;;;0.00;0.00;;;13.00;87.40;;;;;;4970745;28;20456;-70
2023/09/24 04:57:04;;;;;;;0.00;0.00;;;13.00;87.40;;;;;;4961680;28;20050;-71
2023/09/24 04:59:30;;;;;;;0.10;0.10;;;12.90;87.20;;;;;;4962399;28;20070;-71
2023/09/24 05:01:55;;;;;;;0.15;0.15;;;12.90;87.20;;;;;;4969140;28;20074;-71
2023/09/24 05:04:22;;;;;;;0.10;0.10;;;12.90;87.20;;;;;;4968629;28;20105;-71
2023/09/24 05:06:47;;;;;;;1.25;0.57;;;12.80;87.00;;;;;;4957678;28;20503;-71
2023/09/24 05:09:13;;;;;;;0.00;0.00;;;12.80;87.10;;;;;;4976029;28;20065;-71
2023/09/24 05:11:39;;;;;;;0.00;0.00;;;12.70;87.20;;;;;;4966616;28;20134;-71
2023/09/24 05:14:04;;;;;;;0.00;0.00;;;12.70;87.20;;;;;;4960560;28;20133;-71
2023/09/24 05:16:30;;;;;;;0.00;0.00;;;12.60;87.20;;;;;;4950933;28;20039;-71
2023/09/24 05:18:56;;;;;;;0.00;0.00;;;12.60;87.20;;;;;;4965299;28;20054;-71
2023/09/24 05:21:22;;;;;;;0.00;0.00;;;12.60;87.20;;;;;;4963921;28;20050;-70
2023/09/24 05:23:48;;;;;;;0.00;0.00;;;12.60;87.20;;;;;;4972917;28;20104;-70
2023/09/24 05:26:14;;;;;;;0.00;0.00;;;12.60;87.20;;;;;;4987526;28;20046;-71
2023/09/24 05:28:40;;;;;;;0.00;0.00;;;12.60;87.20;;;;;;4971591;28;20043;-71
2023/09/24 05:31:06;;;;;;;0.08;0.08;;;12.50;87.10;;;;;;4965195;28;20039;-70
2023/09/24 05:33:32;;;;;;;0.00;0.00;;;12.40;87.20;;;;;;4963885;28;20042;-67
2023/09/24 05:35:58;;;;;;;0.00;0.00;;;12.50;87.30;;;;;;4979997;28;20459;-71
2023/09/24 05:38:26;;;;;;;0.00;0.00;;;12.40;87.30;;;;;;4965470;28;20035;-70
2023/09/24 05:40:52;;;;;;;0.10;0.10;;;12.40;87.30;;;;;;4968130;28;20130;-71
2023/09/24 05:43:18;;;;;;;0.00;0.00;;;12.40;87.30;;;;;;4969405;28;20129;-71
2023/09/24 05:45:46;;;;;;;0.00;0.00;;;12.30;87.30;;;;;;4969809;28;20852;-71
2023/09/24 05:48:12;;;;;;;0.13;0.13;;;12.30;87.30;;;;;;4967972;28;20514;-72
2023/09/24 05:50:38;;;;;;;0.00;0.00;;;12.30;87.30;;;;;;4968504;28;20130;-71
2023/09/24 05:53:04;;;;;;;0.00;0.00;;;12.30;87.30;;;;;;4968192;28;20125;-71
2023/09/24 05:55:30;;;;;;;0.00;0.00;;;12.30;87.30;;;;;;4967705;28;20404;-71
2023/09/24 05:57:56;;;;;;;0.00;0.00;;;12.30;87.30;;;;;;4969503;28;20046;-71
2023/09/24 06:00:22;;;;;;;0.00;0.00;;;12.30;87.20;;;;;;4969347;28;20114;-71
2023/09/24 06:02:47;;;;;;;0.00;0.00;;;12.40;87.30;;;;;;4969057;28;20093;-71
2023/09/24 06:05:13;;;;;;;0.00;0.00;;;12.30;87.30;;;;;;4977445;28;20145;-70
2023/09/24 06:07:39;;;;;;;0.00;0.00;;;12.30;87.30;;;;;;4988409;28;20108;-71
2023/09/24 06:10:05;;;;;;;0.00;0.00;;;12.20;87.30;;;;;;4988539;28;20112;-71
2023/09/24 06:12:31;;;;;;;0.00;0.00;;;12.20;87.50;;;;;;4972801;28;20126;-71
2023/09/24 06:14:57;;;;;;;0.00;0.00;;;12.20;87.40;;;;;;4969674;28;20063;-71
2023/09/24 06:17:23;;;;;;;0.10;0.10;;;12.30;87.60;;;;;;4984561;28;20057;-71
2023/09/24 06:19:48;;;;;;;0.03;0.03;;;12.30;87.60;;;;;;4968960;28;20113;-72
2023/09/24 06:22:14;;;;;;;0.00;0.00;;;12.30;87.60;;;;;;4970392;28;20133;-71
2023/09/24 06:24:39;;;;;;;0.00;0.00;;;12.30;87.40;;;;;;4972403;28;20082;-72
2023/09/24 06:27:05;;;;;;;0.00;0.00;;;12.40;87.50;;;;;;4968840;28;20050;-72
2023/09/24 06:29:35;;;;;;;0.10;0.10;;;12.50;87.50;;;;;;4986257;28;20400;-70
2023/09/24 06:32:01;;;;;;;0.00;0.00;;;12.40;87.50;;;;;;4972355;28;20043;-72
2023/09/24 06:34:27;;;;;;;0.00;0.00;;;12.40;87.50;;;;;;4969701;28;20061;-73
2023/09/24 06:36:52;;;;;;;0.00;0.00;;;12.40;87.60;;;;;;4972378;28;20448;-71
2023/09/24 06:39:18;;;;;;;0.00;0.00;;;12.50;87.50;;;;;;4972368;28;20058;-71
2023/09/24 06:41:46;;;;;;;0.00;0.00;;;12.50;87.40;;;;;;4970849;28;20042;-70
2023/09/24 06:44:11;;;;;;;0.00;0.00;;;12.50;87.50;;;;;;4970119;28;20054;-71
2023/09/24 06:46:53;;;;;;;0.00;0.00;;;12.50;87.60;;;;;;4968232;28;20097;-72
2023/09/24 06:49:21;;;;;;;0.00;0.00;;;12.60;87.50;;;;;;4971892;28;20058;-72
2023/09/24 06:51:47;;;;;;;0.10;0.10;;;12.60;87.50;;;;;;4970581;28;20043;-73
2023/09/24 06:54:12;;;;;;;0.00;0.00;;;12.60;87.60;;;;;;4953421;28;20074;-73
2023/09/24 06:56:50;;;;;;;0.10;0.10;;;12.60;87.50;;;;;;4983689;28;20126;-73
2023/09/24 06:59:15;;;;;;;0.10;0.10;;;12.60;87.40;;;;;;4967798;28;20129;-69
2023/09/24 07:01:41;;;;;;;0.00;0.00;;;12.60;87.40;;;;;;4969346;28;20105;-75
2023/09/24 07:04:06;;;;;;;0.00;0.00;;;13.60;92.10;;;;;;4972988;28;20073;-73
2023/09/24 07:06:32;;;;;;;0.00;0.00;;;13.80;90.20;;;;;;4969553;28;20543;-73
2023/09/24 07:09:01;;;;;;;0.10;0.10;;;13.60;89.20;;;;;;4969581;28;20055;-73
2023/09/24 07:11:51;;;;;;;0.25;0.25;;;13.60;88.50;;;;;;4959031;28;20042;-69
2023/09/24 07:14:20;;;;;;;0.00;0.00;;;13.40;88.10;;;;;;4969348;28;20073;-68
2023/09/24 07:17:01;;;;;;;1.00;0.55;;;13.70;88.20;;;;;;4970531;28;20508;-68
2023/09/24 07:19:33;;;;;;;0.00;0.00;;;14.00;87.70;;;;;;4969020;28;20061;-68
2023/09/24 07:21:58;;;;;;;0.00;0.00;;;14.30;87.10;;;;;;4951643;28;20051;-71
2023/09/24 07:24:24;;;;;;;0.00;0.00;;;14.60;86.50;;;;;;4954647;28;20531;-71
2023/09/24 07:27:02;;;;;;;0.88;0.40;;;15.00;85.70;;;;;;4966159;28;20085;-70
2023/09/24 07:29:29;;;;;;;0.10;0.10;;;15.00;84.50;;;;;;4969900;28;20067;-72
2023/09/24 07:31:56;;;;;;;0.00;0.00;;;14.70;83.90;;;;;;4970419;28;20047;-71
2023/09/24 07:34:22;;;;;;;0.00;0.00;;;14.50;84.10;;;;;;4970721;28;20063;-72
2023/09/24 07:36:48;;;;;;;0.30;0.30;;;14.30;84.00;;;;;;4969888;28;20350;-71
2023/09/24 07:39:14;;;;;;;0.00;0.00;;;14.20;84.30;;;;;;4970410;28;20087;-71
2023/09/24 07:41:39;;;;;;;0.10;0.10;;;14.10;84.60;;;;;;4969775;28;20062;-71
2023/09/24 07:44:05;;;;;;;0.10;0.10;;;14.10;84.80;;;;;;4970710;28;20051;-71
2023/09/24 07:46:31;;;;;;;0.00;0.00;;;14.00;85.10;;;;;;4969929;28;20039;-72
2023/09/24 07:48:56;;;;;;;0.00;0.00;;;14.00;85.30;;;;;;4971227;28;20063;-72
2023/09/24 07:51:22;;;;;;;0.00;0.00;;;14.00;85.40;;;;;;4970651;28;20408;-71
2023/09/24 07:53:49;;;;;;;0.00;0.00;;;14.00;85.60;;;;;;4969957;28;20070;-71
2023/09/24 07:56:15;;;;;;;0.00;0.00;;;14.00;85.70;;;;;;4974038;28;20487;-71
2023/09/24 07:58:42;;;;;;;0.00;0.00;;;14.00;85.80;;;;;;4990352;28;20046;-71
2023/09/24 08:01:18;;;;;;;0.00;0.00;;;14.00;86.00;;;;;;4990797;28;20045;-71
2023/09/24 08:03:45;;;;;;;0.00;0.00;;;14.00;86.00;;;;;;4989288;28;20274;-71
2023/09/24 08:06:11;;;;;;;0.10;0.10;;;14.10;86.10;;;;;;4990679;28;20514;-71
2023/09/24 08:08:37;;;;;;;0.00;0.00;;;14.10;86.00;;;;;;4971062;28;20093;-71
2023/09/24 08:11:03;;;;;;;0.10;0.10;;;14.10;86.10;;;;;;4970582;28;20082;-71
2023/09/24 08:13:29;;;;;;;0.00;0.00;;;14.20;86.20;;;;;;4971303;28;20054;-71
2023/09/24 08:15:58;;;;;;;0.20;0.20;;;14.20;86.10;;;;;;4971110;28;20057;-71
2023/09/24 08:18:24;;;;;;;0.00;0.00;;;14.30;86.00;;;;;;4968885;28;20046;-66
2023/09/24 08:20:53;;;;;;;0.00;0.00;;;14.30;86.30;;;;;;4969262;28;20134;-69
2023/09/24 08:23:20;;;;;;;0.00;0.00;;;14.50;86.50;;;;;;4975756;28;20098;-70
2023/09/24 08:25:54;;;;;;;0.00;0.00;;;14.60;86.20;;;;;;4961122;28;20035;-70
2023/09/24 08:28:23;;;;;;;0.03;0.03;;;14.70;85.80;;;;;;4962029;28;20057;-70
2023/09/24 08:30:48;;;;;;;0.05;0.05;;;14.70;85.70;;;;;;4966389;28;20086;-70
2023/09/24 08:33:14;;;;;;;0.00;0.00;;;14.80;85.30;;;;;;4964649;28;20046;-71
2023/09/24 08:35:40;;;;;;;0.10;0.10;;;14.90;85.10;;;;;;4963512;28;20094;-72
2023/09/24 08:38:06;;;;;;;0.00;0.00;;;15.00;84.60;;;;;;4965946;28;20050;-72
2023/09/24 08:40:32;;;;;;;0.00;0.00;;;15.00;84.30;;;;;;4965684;28;20057;-72
2023/09/24 08:42:58;;;;;;;0.90;0.70;;;15.10;84.20;;;;;;4966498;28;20715;-73
2023/09/24 08:45:26;;;;;;;0.00;0.00;;;15.10;83.60;;;;;;4964905;28;20128;-72
2023/09/24 08:47:52;;;;;;;0.20;0.20;;;15.20;82.90;;;;;;4964157;28;20122;-72
2023/09/24 08:50:18;;;;;;;0.00;0.00;;;15.20;82.90;;;;;;4962741;28;20466;-71
2023/09/24 08:52:45;;;;;;;0.00;0.00;;;15.20;82.80;;;;;;4961445;28;20230;-72
2023/09/24 08:55:13;;;;;;;0.20;0.20;;;15.30;82.90;;;;;;4958527;28;20059;-75
2023/09/24 08:57:40;;;;;;;0.00;0.00;;;15.30;81.50;;;;;;4961194;28;21530;-75
2023/09/24 09:00:09;;;;;;;0.00;0.00;;;15.30;82.00;;;;;;4961483;28;20051;-75
2023/09/24 09:02:35;;;;;;;0.00;0.00;;;15.40;82.50;;;;;;4964354;28;20047;-74
2023/09/24 09:05:04;;;;;;;0.00;0.00;;;15.50;81.50;;;;;;4967244;28;20108;-75
2023/09/24 09:07:30;;;;;;;0.00;0.00;;;15.50;81.10;;;;;;4959103;28;20042;-75
2023/09/24 09:10:05;;;;;;;0.05;0.05;;;15.60;81.10;;;;;;4965137;28;20054;-74
2023/09/24 09:12:30;;;;;;;0.00;0.00;;;15.50;81.30;;;;;;4967509;28;20069;-75
2023/09/24 09:14:56;;;;;;;0.00;0.00;;;15.60;81.40;;;;;;4956332;28;20054;-74
2023/09/24 09:17:23;;;;;;;0.00;0.00;;;15.60;81.60;;;;;;4966927;28;20078;-74
2023/09/24 09:19:55;;;;;;;0.00;0.00;;;15.70;81.30;;;;;;4970788;28;20058;-74
2023/09/24 09:22:27;;;;;;;0.05;0.05;;;15.80;81.60;;;;;;4954972;28;20507;-75
2023/09/24 09:25:09;;;;;;;0.17;0.17;;;15.80;81.30;;;;;;4956278;28;20407;-76
2023/09/24 09:27:37;;;;;;;;;;;15.90;80.70;;;;;;4955432;28;20043;-75
2023/09/24 09:30:15;;;;;;;0.00;0.00;;;15.90;79.50;;;;;;4968129;28;20344;-74
2023/09/24 09:32:44;;;;;;;0.00;0.00;;;15.90;79.80;;;;;;4965560;28;20095;-74
2023/09/24 09:35:10;;;;;;;0.28;0.28;;;15.90;79.40;;;;;;4964943;28;20050;-75
2023/09/24 09:37:41;;;;;;;0.00;0.00;;;16.10;79.70;;;;;;4969779;28;20067;-74
2023/09/24 09:40:08;;;;;;;0.00;0.00;;;16.10;78.40;;;;;;4968220;28;20105;-76
2023/09/24 09:42:36;;;;;;;0.10;0.10;;;16.10;78.60;;;;;;4985034;28;20101;-75
2023/09/24 09:45:07;;;;;;;0.00;0.00;;;16.10;77.90;;;;;;4988950;28;20448;-73
2023/09/24 09:47:38;;;;;;;0.25;0.25;;;16.20;77.60;;;;;;4989313;28;20873;-73
2023/09/24 09:50:04;;;;;;;0.00;0.00;;;16.20;77.60;;;;;;4988091;28;20507;-72
2023/09/24 09:52:38;;;;;;;0.00;0.00;;;16.30;78.10;;;;;;4971434;28;20043;-73
2023/09/24 09:55:05;;;;;;;0.20;0.20;;;16.30;77.30;;;;;;4969262;28;20071;-72
2023/09/24 09:57:35;;;;;;;0.00;0.00;;;16.30;77.20;;;;;;4951172;28;20047;-76
2023/09/24 10:00:10;;;;;;;0.10;0.10;;;16.30;75.40;;;;;;4952731;28;20067;-74
2023/09/24 10:02:38;;;;;;;0.10;0.10;;;16.40;74.90;;;;;;4957369;28;20046;-75
2023/09/24 10:05:06;;;;;;;0.00;0.00;;;16.50;75.80;;;;;;4964887;28;20081;-75
2023/09/24 10:07:35;;;;;;;0.00;0.00;;;16.50;75.40;;;;;;4971895;28;20126;-74
2023/09/24 10:10:01;;;;;;;0.17;0.17;;;16.50;74.20;;;;;;4953317;28;20186;-75
2023/09/24 10:12:39;;;;;;;0.85;0.85;;;16.50;74.80;;;;;;4967033;28;20138;-75
2023/09/24 10:15:28;;;;;;;0.00;0.00;;;16.60;75.30;;;;;;4955068;28;20063;-76
2023/09/24 10:18:09;;;;;;;0.00;0.00;;;16.60;74.50;;;;;;4953032;28;20055;-76
2023/09/24 10:20:50;;;;;;;0.00;0.00;;;16.70;74.00;;;;;;4951924;28;20135;-76
2023/09/24 10:23:28;;;;;;;0.10;0.10;;;16.60;72.30;;;;;;4966972;28;20455;-76
2023/09/24 10:25:53;;;;;;;0.00;0.00;;;16.80;74.20;;;;;;4970389;28;20058;-76
2023/09/24 10:28:19;;;;;;;0.00;0.00;;;16.80;73.10;;;;;;4972679;28;20050;-76
2023/09/24 10:31:02;;;;;;;0.00;0.00;;;16.90;71.90;;;;;;4970879;28;20086;-76
2023/09/24 10:33:56;;;;;;;0.00;0.00;;;16.90;72.20;;;;;;4972710;28;20061;-76
2023/09/24 10:36:29;;;;;;;0.17;0.17;;;17.10;71.40;;;;;;4969577;28;20117;-76
2023/09/24 10:39:03;;;;;;;0.00;0.00;;;17.10;71.60;;;;;;4969996;28;20046;-76
2023/09/24 10:41:28;;;;;;;0.13;0.13;;;17.10;72.20;;;;;;4983533;28;20070;-76
2023/09/24 10:44:22;;;;;;;0.00;0.00;;;17.20;71.10;;;;;;4980379;28;20546;-75
2023/09/24 10:46:48;;;;;;;0.00;0.00;;;17.20;71.00;;;;;;4960428;28;20094;-76
2023/09/24 10:49:21;;;;;;;0.00;0.00;;;17.20;71.00;;;;;;4972761;28;20039;-75
2023/09/24 10:51:56;;;;;;;0.00;0.00;;;17.30;70.30;;;;;;4972132;28;20149;-75
2023/09/24 10:54:21;;;;;;;0.03;0.03;;;17.30;69.50;;;;;;4965750;28;20806;-71
2023/09/24 10:56:47;;;;;;;0.00;0.00;;;17.50;68.60;;;;;;4969868;28;20051;-74
2023/09/24 10:59:14;;;;;;;0.10;0.10;;;17.50;70.30;;;;;;4970269;28;20415;-75
2023/09/24 11:01:40;;;;;;;0.00;0.00;;;17.60;70.80;;;;;;4968846;28;20381;-76
2023/09/24 11:04:08;;;;;;;4.03;1.45;;;17.60;69.90;;;;;;4961832;28;20105;-76
2023/09/24 11:06:35;;;;;;;0.00;0.00;;;17.70;68.00;;;;;;4964210;28;20531;-75
2023/09/24 11:09:16;;;;;;;0.00;0.00;;;17.70;69.20;;;;;;4953969;28;20040;-75
2023/09/24 11:11:42;;;;;;;;;;;17.80;69.40;;;;;;4961378;28;20142;-76
2023/09/24 11:14:23;;;;;;;0.13;0.13;;;18.00;69.10;;;;;;4966383;28;20347;-76
2023/09/24 11:16:50;;;;;;;0.00;0.00;;;18.00;67.10;;;;;;4971768;28;20523;-75
2023/09/24 11:19:42;;;;;;;0.00;0.00;;;18.00;66.10;;;;;;4971929;28;20046;-76
2023/09/24 11:22:20;;;;;;;0.10;0.10;;;18.10;65.50;;;;;;4970116;28;20046;-77
2023/09/24 11:24:50;;;;;;;0.00;0.00;;;18.10;65.70;;;;;;4971439;28;20051;-75
2023/09/24 11:27:18;;;;;;;0.00;0.00;;;18.20;66.30;;;;;;4971630;28;20212;-76
2023/09/24 11:30:00;;;;;;;0.00;0.00;;;18.20;64.90;;;;;;4971598;28;20101;-75
2023/09/24 11:32:27;;;;;;;0.00;0.00;;;18.40;66.10;;;;;;4975346;28;20062;-76
2023/09/24 11:35:13;;;;;;;0.00;0.00;;;18.30;65.80;;;;;;4966720;28;20414;-75
2023/09/24 11:37:51;;;;;;;0.00;0.00;;;18.40;65.40;;;;;;4970287;28;20165;-76
2023/09/24 11:40:23;;;;;;;0.00;0.00;;;18.40;64.20;;;;;;4972950;28;20070;-76
2023/09/24 11:43:03;;;;;;;0.00;0.00;;;18.30;62.90;;;;;;4988705;28;20062;-76
2023/09/24 11:45:38;;;;;;;0.00;0.00;;;18.30;66.20;;;;;;4989655;28;20058;-76
2023/09/24 11:48:05;;;;;;;0.43;0.43;;;18.30;65.80;;;;;;4990319;28;20068;-76
2023/09/24 11:50:31;;;;;;;0.00;0.00;;;18.30;66.60;;;;;;4990788;28;20050;-76
2023/09/24 11:52:57;;;;;;;0.08;0.08;;;18.30;67.50;;;;;;4975180;28;20547;-76
2023/09/24 11:55:22;;;;;;;0.00;0.00;;;18.40;67.20;;;;;;4970665;28;20580;-76
2023/09/24 11:57:48;;;;;;;0.10;0.10;;;18.40;66.70;;;;;;4970457;28;20047;-75
2023/09/24 12:00:14;;;;;;;0.00;0.00;;;18.40;66.70;;;;;;4970671;28;20083;-76
2023/09/24 12:02:40;;;;;;;0.10;0.10;;;18.40;66.40;;;;;;4970604;28;20061;-76
2023/09/24 12:05:06;;;;;;;0.20;0.20;;;18.40;67.40;;;;;;4965743;28;20054;-66
2023/09/24 12:07:33;;;;;;;0.00;0.00;;;18.60;74.90;;;;;;4971086;28;20142;-67
2023/09/24 12:10:01;;;;;;;0.25;0.25;;;18.70;68.90;;;;;;4959911;28;20066;-68
2023/09/24 12:12:29;;;;;;;0.08;0.08;;;18.90;69.90;;;;;;4962614;28;20497;-66
2023/09/24 12:14:55;;;;;;;0.00;0.00;;;18.90;68.00;;;;;;4955959;28;20473;-67
2023/09/24 12:17:23;;;;;;;0.00;0.00;;;18.90;66.70;;;;;;4958971;28;20099;-68
2023/09/24 12:19:58;;;;;;;0.00;0.00;;;19.00;68.40;;;;;;4958107;28;20583;-68
2023/09/24 12:22:24;;;;;;;0.10;0.10;;;19.00;67.50;;;;;;4956961;28;20047;-76
2023/09/24 12:24:49;;;;;;;0.00;0.00;;;19.00;66.20;;;;;;4967499;28;20049;-76
2023/09/24 12:27:15;;;;;;;0.55;0.55;;;19.10;66.40;;;;;;4969079;28;20042;-75
2023/09/24 12:29:41;;;;;;;0.00;0.00;;;19.10;66.30;;;;;;4968967;28;20061;-74
2023/09/24 12:32:06;;;;;;;0.00;0.00;;;19.20;66.20;;;;;;4956863;28;20134;-76
2023/09/24 12:34:32;;;;;;;0.00;0.00;;;19.40;66.40;;;;;;4959484;28;20055;-75
2023/09/24 12:36:57;;;;;;;0.00;0.00;;;19.50;66.60;;;;;;4962021;28;20369;-76
2023/09/24 12:39:24;;;;;;;0.00;0.00;;;19.50;63.50;;;;;;4968276;28;20109;-76
2023/09/24 12:41:50;;;;;;;0.00;0.00;;;19.50;63.20;;;;;;4969018;28;20050;-76
2023/09/24 12:44:18;;;;;;;0.00;0.00;;;19.50;64.50;;;;;;4967091;28;20397;-76
2023/09/24 12:46:44;;;;;;;0.00;0.00;;;19.60;62.70;;;;;;4967525;28;20059;-76
2023/09/24 12:49:10;;;;;;;0.20;0.20;;;19.60;63.10;;;;;;4968249;28;20452;-76
2023/09/24 12:51:35;;;;;;;0.00;0.00;;;19.70;63.40;;;;;;4969176;28;20507;-76
2023/09/24 12:54:02;;;;;;;0.20;0.20;;;19.80;63.50;;;;;;4968182;28;20129;-76